createdAt,value
2023-08-07T00:00:02.535Z,73.8
2023-08-07T00:01:03.091Z,74.3
2023-08-07T00:02:01.079Z,74.7
2023-08-07T00:03:01.109Z,74.6
2023-08-07T00:04:01.084Z,75.3
2023-08-07T00:05:01.094Z,75.6
2023-08-07T00:06:04.769Z,75.9
2023-08-07T00:07:02.176Z,76.2
2023-08-07T00:08:01.413Z,76.1
2023-08-07T00:09:01.237Z,76.1
2023-08-07T00:10:01.231Z,76.3
2023-08-07T00:11:06.760Z,76.4
2023-08-07T00:12:01.169Z,76.2
2023-08-07T00:13:01.194Z,75.7
2023-08-07T00:14:02.034Z,75.7
2023-08-07T00:15:02.876Z,75.6
2023-08-07T00:16:10.595Z,75.5
2023-08-07T00:17:01.177Z,75.6
2023-08-07T00:18:01.242Z,75.4
2023-08-07T00:19:01.280Z,75.5
2023-08-07T00:20:08.082Z,75.5
2023-08-07T00:21:12.569Z,75.3
2023-08-07T00:22:01.095Z,75.4
2023-08-07T00:23:01.112Z,75.4
2023-08-07T00:24:01.114Z,75.1
2023-08-07T00:25:01.099Z,75.3
2023-08-07T00:26:16.338Z,75.7
2023-08-07T00:27:02.121Z,75.7
2023-08-07T00:28:02.172Z,75.7
2023-08-07T00:29:01.159Z,75.7
2023-08-07T00:30:01.048Z,75.9
2023-08-07T00:31:01.040Z,75.8
2023-08-07T00:32:01.053Z,75.7
2023-08-07T00:33:01.133Z,75.7
2023-08-07T00:34:01.309Z,75.7
2023-08-07T00:35:01.064Z,75.7
2023-08-07T00:36:01.458Z,76
2023-08-07T00:37:01.090Z,76.5
2023-08-07T00:38:01.111Z,76.6
2023-08-07T00:39:01.110Z,76.6
2023-08-07T00:40:01.213Z,76.7
2023-08-07T00:41:01.168Z,76.8
2023-08-07T00:42:01.138Z,76.6
2023-08-07T00:43:01.134Z,76.5
2023-08-07T00:44:01.467Z,76.2
2023-08-07T00:45:01.039Z,76.2
2023-08-07T00:46:01.045Z,76.2
2023-08-07T00:47:01.528Z,75.9
2023-08-07T00:48:01.101Z,75.7
2023-08-07T00:49:01.055Z,75.7
2023-08-07T00:50:01.101Z,75.8
2023-08-07T00:51:01.087Z,76.1
2023-08-07T00:52:01.100Z,76.2
2023-08-07T00:53:01.112Z,76.4
2023-08-07T00:54:01.118Z,76.5
2023-08-07T00:55:02.071Z,76.6
2023-08-07T00:56:01.175Z,76.6
2023-08-07T00:57:01.190Z,76.6
2023-08-07T00:58:01.542Z,76.8
2023-08-07T00:59:00.871Z,77.2
2023-08-07T01:00:01.141Z,77.8
2023-08-07T01:01:01.100Z,78.3
2023-08-07T01:02:01.868Z,78.9
2023-08-07T01:03:01.136Z,79.5
2023-08-07T01:04:01.499Z,80.3
2023-08-07T01:05:02.117Z,80.8
2023-08-07T01:06:01.076Z,81.4
2023-08-07T01:07:01.239Z,82.3
2023-08-07T01:08:01.092Z,82.4
2023-08-07T01:09:01.095Z,82.2
2023-08-07T01:10:01.211Z,82.7
2023-08-07T01:11:01.100Z,83.1
2023-08-07T01:12:01.127Z,83.6
2023-08-07T01:13:01.750Z,84.5
2023-08-07T01:14:02.197Z,85.1
2023-08-07T01:15:01.445Z,84.9
2023-08-07T01:16:01.932Z,84.8
2023-08-07T01:17:01.205Z,84.9
2023-08-07T01:18:01.092Z,85.3
2023-08-07T01:19:01.341Z,85.9
2023-08-07T01:20:01.483Z,85.9
2023-08-07T01:21:01.069Z,85.9
2023-08-07T01:22:01.077Z,85.9
2023-08-07T01:23:01.141Z,85.9
2023-08-07T01:24:00.672Z,86.1
2023-08-07T01:25:00.388Z,86.2
2023-08-07T01:26:00.321Z,86.7
2023-08-07T01:26:59.972Z,87.5
2023-08-07T01:27:59.673Z,87.9
2023-08-07T01:29:01.483Z,87.6
2023-08-07T01:30:01.176Z,87.9
2023-08-07T01:31:01.075Z,88.4
2023-08-07T01:32:01.036Z,88.8
2023-08-07T01:33:01.081Z,89.1
2023-08-07T01:34:01.056Z,89.1
2023-08-07T01:35:01.501Z,88.8
2023-08-07T01:36:01.050Z,89.2
2023-08-07T01:37:01.059Z,89.1
2023-08-07T01:38:01.082Z,89.3
2023-08-07T01:39:01.565Z,89.8
2023-08-07T01:40:01.186Z,89.7
2023-08-07T01:41:01.048Z,90.3
2023-08-07T01:42:02.799Z,90.4
2023-08-07T01:43:00.905Z,90.4
2023-08-07T01:44:00.624Z,90.6
2023-08-07T01:45:00.411Z,90.6
2023-08-07T01:46:00.298Z,90.8
2023-08-07T01:47:06.541Z,91.1
2023-08-07T01:48:01.327Z,91
2023-08-07T01:49:01.045Z,90.9
2023-08-07T01:50:01.113Z,90.9
2023-08-07T01:51:00.737Z,90.9
2023-08-07T01:52:08.037Z,90.8
2023-08-07T01:53:01.526Z,90.7
2023-08-07T01:54:01.083Z,90.6
2023-08-07T01:55:01.139Z,90.8
2023-08-07T01:56:01.313Z,90.7
2023-08-07T01:57:11.811Z,90.8
2023-08-07T01:58:01.099Z,91.1
2023-08-07T01:59:01.096Z,91.1
2023-08-07T02:00:01.132Z,91.2
2023-08-07T02:01:01.141Z,91.2
2023-08-07T02:02:14.695Z,91.4
2023-08-07T02:03:01.264Z,91.4
2023-08-07T02:04:02.607Z,91.4
2023-08-07T02:05:02.025Z,91
2023-08-07T02:06:01.470Z,90.9
2023-08-07T02:07:01.176Z,90.8
2023-08-07T02:08:01.071Z,90.8
2023-08-07T02:09:00.661Z,90.8
2023-08-07T02:10:00.260Z,90.7
2023-08-07T02:11:00.077Z,90.6
2023-08-07T02:11:59.941Z,90.5
2023-08-07T02:12:59.661Z,90.6
2023-08-07T02:14:01.818Z,90.5
2023-08-07T02:15:01.419Z,90.5
2023-08-07T02:16:01.313Z,90.6
2023-08-07T02:17:01.134Z,90.6
2023-08-07T02:18:01.158Z,90.5
2023-08-07T02:19:01.201Z,90.6
2023-08-07T02:20:01.102Z,90.5
2023-08-07T02:21:01.548Z,90.4
2023-08-07T02:22:01.054Z,90.5
2023-08-07T02:23:01.055Z,90.6
2023-08-07T02:24:01.012Z,90.8
2023-08-07T02:25:01.283Z,90.8
2023-08-07T02:26:02.251Z,90.9
2023-08-07T02:27:01.076Z,90.8
2023-08-07T02:28:01.384Z,90.7
2023-08-07T02:29:01.579Z,90.8
2023-08-07T02:30:01.622Z,90.7
2023-08-07T02:31:02.164Z,90.6
2023-08-07T02:32:01.112Z,90.7
2023-08-07T02:33:01.176Z,90.7
2023-08-07T02:34:01.126Z,90.8
2023-08-07T02:35:00.735Z,90.8
2023-08-07T02:36:00.332Z,90.7
2023-08-07T02:37:00.353Z,90.6
2023-08-07T02:37:59.920Z,90.5
2023-08-07T02:38:59.522Z,90.3
2023-08-07T02:40:01.137Z,90.3
2023-08-07T02:41:01.166Z,90.2
2023-08-07T02:42:01.281Z,90.2
2023-08-07T02:43:01.094Z,90.3
2023-08-07T02:44:01.023Z,90.3
2023-08-07T02:45:01.302Z,90.3
2023-08-07T02:46:02.053Z,90.3
2023-08-07T02:47:01.124Z,90.3
2023-08-07T02:48:01.184Z,90.3
2023-08-07T02:49:01.122Z,90.3
2023-08-07T02:50:01.353Z,90.3
2023-08-07T02:51:02.049Z,90.4
2023-08-07T02:52:01.964Z,90.1
2023-08-07T02:53:01.039Z,90
2023-08-07T02:54:01.048Z,90
2023-08-07T02:55:01.086Z,89.9
2023-08-07T02:56:01.060Z,90
2023-08-07T02:57:01.083Z,90
2023-08-07T02:58:01.302Z,90.2
2023-08-07T02:59:01.211Z,90.3
2023-08-07T03:00:01.118Z,90.2
2023-08-07T03:01:01.131Z,90.1
2023-08-07T03:02:01.265Z,90.1
2023-08-07T03:03:01.872Z,90
2023-08-07T03:04:01.830Z,90
2023-08-07T03:05:01.194Z,90
2023-08-07T03:06:01.243Z,89.9
2023-08-07T03:07:01.363Z,90.1
2023-08-07T03:08:02.401Z,90.3
2023-08-07T03:09:01.448Z,90.2
2023-08-07T03:10:01.099Z,90.3
2023-08-07T03:11:01.062Z,90.5
2023-08-07T03:12:00.755Z,90.7
2023-08-07T03:13:00.381Z,91
2023-08-07T03:14:00.161Z,91.2
2023-08-07T03:14:59.749Z,91.2
2023-08-07T03:16:02.347Z,91.3
2023-08-07T03:17:01.122Z,91.3
2023-08-07T03:18:04.024Z,91.2
2023-08-07T03:19:01.105Z,91.1
2023-08-07T03:20:01.127Z,91
2023-08-07T03:21:01.748Z,91
2023-08-07T03:22:01.441Z,91.1
2023-08-07T03:23:06.066Z,91
2023-08-07T03:24:02.150Z,90.9
2023-08-07T03:25:00.791Z,90.9
2023-08-07T03:26:12.466Z,90.6
2023-08-07T03:27:01.023Z,90.3
2023-08-07T03:28:08.343Z,90.3
2023-08-07T03:29:01.033Z,90.3
2023-08-07T03:30:01.349Z,90.3
2023-08-07T03:31:01.812Z,90.3
2023-08-07T03:32:00.985Z,90.5
2023-08-07T03:33:10.941Z,90.6
2023-08-07T03:34:01.770Z,90.7
2023-08-07T03:35:01.134Z,90.9
2023-08-07T03:36:01.167Z,90.9
2023-08-07T03:37:01.127Z,91
2023-08-07T03:38:14.610Z,90.9
2023-08-07T03:39:01.053Z,90.8
2023-08-07T03:40:00.790Z,90.6
2023-08-07T03:41:00.540Z,90.4
2023-08-07T03:42:00.222Z,90.7
2023-08-07T03:42:59.931Z,90.7
2023-08-07T03:43:59.623Z,90.7
2023-08-07T03:45:01.754Z,90.7
2023-08-07T03:46:03.407Z,91.1
2023-08-07T03:47:01.090Z,91.4
2023-08-07T03:48:01.129Z,91.6
2023-08-07T03:49:01.103Z,91.6
2023-08-07T03:50:01.079Z,91.7
2023-08-07T03:51:01.049Z,91.5
2023-08-07T03:52:01.266Z,91.5
2023-08-07T03:53:01.163Z,91.7
2023-08-07T03:54:02.054Z,91.7
2023-08-07T03:55:01.168Z,91.8
2023-08-07T03:56:01.359Z,92.2
2023-08-07T03:57:01.252Z,92.3
2023-08-07T03:58:02.292Z,92.3
2023-08-07T03:59:01.844Z,92.5
2023-08-07T04:00:01.976Z,92.6
2023-08-07T04:01:01.108Z,92.6
2023-08-07T04:02:01.607Z,92.7
2023-08-07T04:03:01.142Z,92.9
2023-08-07T04:04:01.838Z,93.4
2023-08-07T04:05:01.126Z,93.4
2023-08-07T04:06:01.112Z,93.3
2023-08-07T04:07:01.123Z,93.3
2023-08-07T04:08:01.034Z,93.3
2023-08-07T04:09:01.412Z,93.1
2023-08-07T04:10:01.777Z,92.9
2023-08-07T04:11:01.173Z,92.7
2023-08-07T04:12:00.670Z,92.5
2023-08-07T04:13:00.322Z,92.6
2023-08-07T04:14:00.046Z,92.7
2023-08-07T04:14:59.614Z,92.8
2023-08-07T04:16:02.101Z,92.7
2023-08-07T04:17:01.404Z,92.4
2023-08-07T04:18:01.486Z,91.9
2023-08-07T04:19:02.164Z,92.1
2023-08-07T04:20:01.109Z,92.1
2023-08-07T04:21:01.135Z,92.2
2023-08-07T04:22:01.133Z,92
2023-08-07T04:23:01.135Z,91.8
2023-08-07T04:24:01.162Z,91.8
2023-08-07T04:25:01.800Z,91.9
2023-08-07T04:26:01.771Z,91.8
2023-08-07T04:27:01.419Z,91.6
2023-08-07T04:28:02.247Z,90.8
2023-08-07T04:29:01.047Z,90
2023-08-07T04:30:01.168Z,88.7
2023-08-07T04:31:02.551Z,87.4
2023-08-07T04:32:01.131Z,87.5
2023-08-07T04:33:00.888Z,87.3
2023-08-07T04:34:01.132Z,87.3
2023-08-07T04:35:00.909Z,87.8
2023-08-07T04:36:01.184Z,86.9
2023-08-07T04:37:01.361Z,87.2
2023-08-07T04:38:01.280Z,87.2
2023-08-07T04:39:02.046Z,87.4
2023-08-07T04:40:01.143Z,87.8
2023-08-07T04:41:01.122Z,86.1
2023-08-07T04:42:01.041Z,85.5
2023-08-07T04:43:01.035Z,85.5
2023-08-07T04:44:01.049Z,85.2
2023-08-07T04:45:01.136Z,83.5
2023-08-07T04:46:01.160Z,84.3
2023-08-07T04:47:01.196Z,84.2
2023-08-07T04:48:01.181Z,82.6
2023-08-07T04:49:00.977Z,82.7
2023-08-07T04:50:01.071Z,83.7
2023-08-07T04:51:01.110Z,83.7
2023-08-07T04:52:07.218Z,84.6
2023-08-07T04:53:00.810Z,84.6
2023-08-07T04:54:00.401Z,83.9
2023-08-07T04:55:00.049Z,83.3
2023-08-07T04:55:59.936Z,83.9
2023-08-07T04:56:59.484Z,84.6
2023-08-07T04:58:02.137Z,85.2
2023-08-07T04:59:01.176Z,84.7
2023-08-07T05:00:01.056Z,84.9
2023-08-07T05:01:01.132Z,86.2
2023-08-07T05:02:01.088Z,86.6
2023-08-07T05:03:01.462Z,85.7
2023-08-07T05:04:01.137Z,87
2023-08-07T05:05:01.866Z,87.4
2023-08-07T05:06:01.506Z,88.5
2023-08-07T05:07:01.104Z,88.8
2023-08-07T05:08:01.103Z,87.7
2023-08-07T05:09:04.058Z,88
2023-08-07T05:10:02.834Z,87.9
2023-08-07T05:11:01.138Z,87.5
2023-08-07T05:12:01.186Z,87.8
2023-08-07T05:13:01.070Z,87.9
2023-08-07T05:14:05.411Z,88.2
2023-08-07T05:15:01.432Z,88.4
2023-08-07T05:16:02.252Z,88.3
2023-08-07T05:17:01.070Z,88.5
2023-08-07T05:18:01.097Z,88.8
2023-08-07T05:19:09.482Z,89.4
2023-08-07T05:20:01.191Z,90.2
2023-08-07T05:21:01.182Z,90.5
2023-08-07T05:22:00.897Z,90.2
2023-08-07T05:23:00.886Z,90.7
2023-08-07T05:24:11.276Z,90.3
2023-08-07T05:25:00.704Z,90.8
2023-08-07T05:26:00.522Z,90.9
2023-08-07T05:27:00.469Z,90.2
2023-08-07T05:28:00.045Z,90.9
2023-08-07T05:29:13.312Z,90.9
2023-08-07T05:30:01.370Z,90.7
2023-08-07T05:31:01.197Z,90.5
2023-08-07T05:32:00.644Z,89.5
2023-08-07T05:33:00.351Z,90.2
2023-08-07T05:34:00.064Z,90.5
2023-08-07T05:34:59.846Z,90.2
2023-08-07T05:36:01.505Z,90
2023-08-07T05:37:02.587Z,89.8
2023-08-07T05:38:01.803Z,90.3
2023-08-07T05:39:01.313Z,90.7
2023-08-07T05:40:02.110Z,90.1
2023-08-07T05:41:01.724Z,90.2
2023-08-07T05:42:01.126Z,89.1
2023-08-07T05:43:01.129Z,88.9
2023-08-07T05:44:01.036Z,88.6
2023-08-07T05:45:01.141Z,89
2023-08-07T05:46:01.069Z,89.3
2023-08-07T05:47:00.774Z,87.9
2023-08-07T05:48:00.364Z,86.8
2023-08-07T05:49:00.203Z,85.6
2023-08-07T05:49:59.846Z,83.1
2023-08-07T05:51:02.045Z,80.7
2023-08-07T05:52:02.174Z,81.1
2023-08-07T05:53:00.835Z,82.2
2023-08-07T05:54:01.110Z,82.8
2023-08-07T05:55:01.115Z,83.6
2023-08-07T05:56:01.122Z,83.2
2023-08-07T05:57:01.377Z,84.2
2023-08-07T05:58:01.506Z,84.8
2023-08-07T05:59:01.726Z,84.8
2023-08-07T06:00:03.447Z,84.8
2023-08-07T06:01:01.550Z,83.5
2023-08-07T06:02:00.466Z,83.3
2023-08-07T06:03:00.438Z,83.5
2023-08-07T06:04:00.048Z,84.1
2023-08-07T06:05:01.050Z,83.9
2023-08-07T06:06:01.029Z,81.3
2023-08-07T06:07:00.657Z,80.4
2023-08-07T06:08:00.353Z,80.9
2023-08-07T06:09:01.064Z,80.9
2023-08-07T06:10:01.019Z,81.9
2023-08-07T06:11:01.021Z,81
2023-08-07T06:12:01.124Z,78.9
2023-08-07T06:13:01.269Z,78.2
2023-08-07T06:14:00.627Z,76.6
2023-08-07T06:15:00.739Z,77.4
2023-08-07T06:16:00.298Z,77.5
2023-08-07T06:16:59.956Z,77.3
2023-08-07T06:17:59.537Z,77.9
2023-08-07T06:19:01.661Z,77
2023-08-07T06:20:01.209Z,77
2023-08-07T06:21:01.888Z,77.2
2023-08-07T06:22:02.280Z,76.8
2023-08-07T06:23:01.200Z,77.8
2023-08-07T06:24:01.195Z,77.4
2023-08-07T06:25:01.211Z,76
2023-08-07T06:26:01.329Z,74.2
2023-08-07T06:27:02.048Z,70.6
2023-08-07T06:28:02.059Z,69.4
2023-08-07T06:29:02.094Z,69.8
2023-08-07T06:30:01.414Z,65.8
2023-08-07T06:31:01.178Z,58.4
2023-08-07T06:32:01.432Z,57.5
2023-08-07T06:33:02.145Z,58.4
2023-08-07T06:34:00.728Z,59.4
2023-08-07T06:35:00.433Z,60.1
2023-08-07T06:36:00.051Z,60.2
2023-08-07T06:36:59.842Z,57.8
2023-08-07T06:38:01.670Z,58.5
2023-08-07T06:39:01.345Z,58.4
2023-08-07T06:40:02.257Z,57.1
2023-08-07T06:41:02.546Z,59.5
2023-08-07T06:42:01.293Z,59.8
2023-08-07T06:43:01.108Z,59.5
2023-08-07T06:44:01.069Z,60.4
2023-08-07T06:45:01.022Z,60.3
2023-08-07T06:46:01.185Z,58.7
2023-08-07T06:47:02.351Z,56.6
2023-08-07T06:48:02.213Z,55.5
2023-08-07T06:49:01.046Z,56.6
2023-08-07T06:50:00.853Z,56.7
2023-08-07T06:51:01.066Z,56.6
2023-08-07T06:52:01.083Z,54.3
2023-08-07T06:53:01.093Z,55.5
2023-08-07T06:54:00.622Z,54.6
2023-08-07T06:55:00.379Z,53.8
2023-08-07T06:56:00.203Z,53.1
2023-08-07T06:56:59.863Z,53
2023-08-07T06:58:01.518Z,51.7
2023-08-07T06:59:01.128Z,49.2
2023-08-07T07:00:04.112Z,50.1
2023-08-07T07:01:01.130Z,51.5
2023-08-07T07:02:01.294Z,49.3
2023-08-07T07:03:01.662Z,49.5
2023-08-07T07:04:02.007Z,49.8
2023-08-07T07:05:06.806Z,48.1
2023-08-07T07:06:01.061Z,47
2023-08-07T07:07:01.052Z,46.7
2023-08-07T07:08:01.079Z,44.4
2023-08-07T07:09:01.098Z,43
2023-08-07T07:10:09.827Z,42.1
2023-08-07T07:11:01.097Z,42.7
2023-08-07T07:12:01.100Z,42.1
2023-08-07T07:13:00.970Z,42.3
2023-08-07T07:14:00.723Z,41.1
2023-08-07T07:15:11.045Z,41.4
2023-08-07T07:16:01.680Z,42.3
2023-08-07T07:17:01.113Z,41.4
2023-08-07T07:18:01.217Z,41.1
2023-08-07T07:19:01.071Z,41.9
2023-08-07T07:20:15.629Z,41.4
2023-08-07T07:21:01.491Z,35.1
2023-08-07T07:22:00.653Z,35
2023-08-07T07:23:00.336Z,35.8
2023-08-07T07:24:00.042Z,37.2
2023-08-07T07:24:59.737Z,36.2
2023-08-07T07:26:01.916Z,37.1
2023-08-07T07:27:01.762Z,36.7
2023-08-07T07:28:00.708Z,37.6
2023-08-07T07:29:00.372Z,35.9
2023-08-07T07:30:00.169Z,33.9
2023-08-07T07:31:00.004Z,32.9
2023-08-07T07:32:00.053Z,30.1
2023-08-07T07:33:00.056Z,29.7
2023-08-07T07:33:59.691Z,30.1
2023-08-07T07:35:01.344Z,30.5
2023-08-07T07:36:02.395Z,29.3
2023-08-07T07:37:01.055Z,29.3
2023-08-07T07:38:01.055Z,28.2
2023-08-07T07:39:01.088Z,28.7
2023-08-07T07:40:01.100Z,26.8
2023-08-07T07:41:01.149Z,27.7
2023-08-07T07:42:01.508Z,27.2
2023-08-07T07:43:01.413Z,26.3
2023-08-07T07:44:02.159Z,24.9
2023-08-07T07:45:04.187Z,24.6
2023-08-07T07:46:02.475Z,25.3
2023-08-07T07:47:01.131Z,25.2
2023-08-07T07:48:01.203Z,24.9
2023-08-07T07:49:01.121Z,24.2
2023-08-07T07:50:01.146Z,24.7
2023-08-07T07:51:01.050Z,21.9
2023-08-07T07:52:01.227Z,22.9
2023-08-07T07:53:01.110Z,23.5
2023-08-07T07:55:01.319Z,23.4
2023-08-07T07:56:01.120Z,24
2023-08-07T07:57:01.202Z,24.2
2023-08-07T07:58:01.095Z,23.8
2023-08-07T07:59:01.113Z,23.8
2023-08-07T08:00:01.146Z,22.5
2023-08-07T08:01:01.226Z,22.2
2023-08-07T08:02:01.840Z,22.9
2023-08-07T08:03:01.184Z,22.9
2023-08-07T08:04:01.942Z,22.9
2023-08-07T08:05:01.229Z,22.9
2023-08-07T08:06:01.441Z,23
2023-08-07T08:07:01.050Z,23.1
2023-08-07T08:08:01.105Z,23.1
2023-08-07T08:09:01.060Z,23.1
2023-08-07T08:10:01.031Z,22.2
2023-08-07T08:11:03.585Z,21.7
2023-08-07T08:12:01.418Z,21.7
2023-08-07T08:13:01.091Z,21.9
2023-08-07T08:14:01.090Z,21.5
2023-08-07T08:15:03.501Z,20.9
2023-08-07T08:16:00.848Z,20.5
2023-08-07T08:17:01.040Z,20.7
2023-08-07T08:18:01.131Z,21.1
2023-08-07T08:19:01.043Z,20.7
2023-08-07T08:20:01.440Z,21
2023-08-07T08:21:01.188Z,21.3
2023-08-07T08:22:01.048Z,21.9
2023-08-07T08:23:01.103Z,21.5
2023-08-07T08:24:01.078Z,22.2
2023-08-07T08:25:01.075Z,22.4
2023-08-07T08:26:01.470Z,21.8
2023-08-07T08:27:02.679Z,19.8
2023-08-07T08:28:01.113Z,19.8
2023-08-07T08:29:01.037Z,19.7
2023-08-07T08:30:01.064Z,19.9
2023-08-07T08:31:01.164Z,19.8
2023-08-07T08:32:01.920Z,19.4
2023-08-07T08:33:01.942Z,17.7
2023-08-07T08:34:01.708Z,17.4
2023-08-07T08:35:02.448Z,17.7
2023-08-07T08:36:02.582Z,18.1
2023-08-07T08:37:01.162Z,17.7
2023-08-07T08:38:00.723Z,17.8
2023-08-07T08:39:00.343Z,18.3
2023-08-07T08:40:00.153Z,17.7
2023-08-07T08:41:04.229Z,17.8
2023-08-07T08:42:01.125Z,17.7
2023-08-07T08:43:01.036Z,17.6
2023-08-07T08:44:01.089Z,17.4
2023-08-07T08:45:01.346Z,17
2023-08-07T08:46:06.859Z,17.6
2023-08-07T08:47:01.553Z,17.4
2023-08-07T08:48:01.124Z,16.6
2023-08-07T08:49:01.129Z,17.4
2023-08-07T08:50:01.115Z,17.2
2023-08-07T08:51:09.980Z,17.6
2023-08-07T08:52:01.281Z,17.7
2023-08-07T08:53:01.419Z,17.6
2023-08-07T08:54:02.177Z,17.9
2023-08-07T08:55:04.078Z,18.2
2023-08-07T08:56:13.838Z,18.1
2023-08-07T08:57:01.074Z,18.1
2023-08-07T08:58:01.033Z,18
2023-08-07T08:59:01.118Z,18.4
2023-08-07T09:00:01.089Z,18
2023-08-07T09:01:16.039Z,17.6
2023-08-07T09:02:02.147Z,17.3
2023-08-07T09:03:02.581Z,16.8
2023-08-07T09:04:01.477Z,17.5
2023-08-07T09:05:01.563Z,17.4
2023-08-07T09:06:01.069Z,15.3
2023-08-07T09:07:01.448Z,14.8
2023-08-07T09:08:01.150Z,15.1
2023-08-07T09:09:01.074Z,14.2
2023-08-07T09:10:01.073Z,13.7
2023-08-07T09:11:01.061Z,13.8
2023-08-07T09:12:00.557Z,14.2
2023-08-07T09:13:00.244Z,15.3
2023-08-07T09:13:59.821Z,17.5
2023-08-07T09:15:01.458Z,19
2023-08-07T09:16:04.252Z,18.9
2023-08-07T09:17:00.804Z,18.4
2023-08-07T09:18:00.529Z,19.5
2023-08-07T09:19:01.648Z,23.7
2023-08-07T09:20:01.625Z,22.7
2023-08-07T09:21:01.729Z,23.3
2023-08-07T09:22:01.144Z,23.3
2023-08-07T09:23:01.127Z,23.3
2023-08-07T09:24:01.152Z,23.2
2023-08-07T09:25:01.048Z,24.6
2023-08-07T09:26:01.034Z,25
2023-08-07T09:27:01.036Z,24.9
2023-08-07T09:28:01.159Z,26
2023-08-07T09:29:01.073Z,26.2
2023-08-07T09:30:01.502Z,24.3
2023-08-07T09:31:01.149Z,24.7
2023-08-07T09:32:01.089Z,25.6
2023-08-07T09:33:01.123Z,24.1
2023-08-07T09:34:01.105Z,23.1
2023-08-07T09:35:01.111Z,26.4
2023-08-07T09:36:01.118Z,19.2
2023-08-07T09:37:01.922Z,18
2023-08-07T09:38:00.750Z,18.4
2023-08-07T09:39:00.327Z,15.7
2023-08-07T09:39:59.987Z,16.6
2023-08-07T09:40:59.583Z,15.5
2023-08-07T09:42:01.727Z,14.6
2023-08-07T09:43:01.734Z,13.9
2023-08-07T09:44:01.450Z,15.3
2023-08-07T09:45:01.064Z,16.2
2023-08-07T09:46:02.533Z,14.5
2023-08-07T09:47:01.795Z,14.4
2023-08-07T09:48:01.859Z,13.8
2023-08-07T09:49:01.479Z,14.3
2023-08-07T09:50:02.125Z,14
2023-08-07T09:51:01.199Z,13.1
2023-08-07T09:52:01.133Z,13
2023-08-07T09:53:01.126Z,14.4
2023-08-07T09:54:01.141Z,13.3
2023-08-07T09:55:01.143Z,11.6
2023-08-07T09:56:01.145Z,11.9
2023-08-07T09:57:01.111Z,11.5
2023-08-07T09:58:01.057Z,11.5
2023-08-07T09:59:01.447Z,10.3
2023-08-07T10:00:01.168Z,8.5
2023-08-07T10:01:01.422Z,9.1
2023-08-07T10:02:00.282Z,8
2023-08-07T10:03:00.040Z,6.7
2023-08-07T10:03:59.799Z,5.9
2023-08-07T10:05:01.757Z,6.7
2023-08-07T10:06:01.126Z,6.7
2023-08-07T10:07:01.106Z,6.1
2023-08-07T10:08:01.116Z,5.6
2023-08-07T10:09:01.224Z,6.4
2023-08-07T10:10:01.521Z,6.3
2023-08-07T10:11:01.246Z,5.5
2023-08-07T10:12:01.348Z,5.5
2023-08-07T10:13:02.395Z,5.1
2023-08-07T10:14:01.727Z,5.1
2023-08-07T10:15:01.064Z,4.4
2023-08-07T10:16:01.064Z,5.1
2023-08-07T10:17:02.309Z,5
2023-08-07T10:18:00.614Z,4.8
2023-08-07T10:19:00.252Z,5.1
2023-08-07T10:19:59.944Z,4.7
2023-08-07T10:20:59.659Z,5.1
2023-08-07T10:22:04.578Z,5.4
2023-08-07T10:23:01.427Z,3.1
2023-08-07T10:24:01.462Z,2.8
2023-08-07T10:25:02.594Z,1.6
2023-08-07T10:26:01.467Z,2.4
2023-08-07T10:27:07.626Z,2.9
2023-08-07T10:28:01.061Z,2.2
2023-08-07T10:29:01.045Z,3.1
2023-08-07T10:30:01.317Z,1
2023-08-07T10:31:01.161Z,1.1
2023-08-07T10:32:09.818Z,1.3
2023-08-07T10:33:02.053Z,1.8
2023-08-07T10:34:01.465Z,1
2023-08-07T10:35:01.416Z,1
2023-08-07T10:36:01.182Z,1
2023-08-07T10:37:13.448Z,1.8
2023-08-07T10:38:01.512Z,1.3
2023-08-07T10:39:02.565Z,1
2023-08-07T10:40:02.363Z,1
2023-08-07T10:41:01.174Z,1
2023-08-07T10:42:16.244Z,1
2023-08-07T10:43:01.301Z,1
2023-08-07T10:44:01.164Z,1
2023-08-07T10:45:01.424Z,1
2023-08-07T10:46:01.175Z,1
2023-08-07T10:47:01.402Z,1
2023-08-07T10:48:01.124Z,1
2023-08-07T10:49:01.219Z,1
2023-08-07T10:50:01.146Z,1
2023-08-07T10:51:01.028Z,1
2023-08-07T10:52:01.539Z,1
2023-08-07T10:53:01.109Z,1
2023-08-07T10:54:00.876Z,1
2023-08-07T10:55:00.618Z,1
2023-08-07T10:56:00.369Z,1
2023-08-07T10:57:00.712Z,1
2023-08-07T10:58:00.464Z,1
2023-08-07T10:59:00.223Z,1
2023-08-07T11:00:01.073Z,1
2023-08-07T11:01:01.110Z,1
2023-08-07T11:02:01.687Z,1
2023-08-07T11:03:01.196Z,1
2023-08-07T11:04:01.237Z,1
2023-08-07T11:05:01.502Z,1
2023-08-07T11:06:01.404Z,1
2023-08-07T11:07:02.151Z,1
2023-08-07T11:08:01.167Z,1
2023-08-07T11:09:01.168Z,1
2023-08-07T11:10:01.218Z,1
2023-08-07T11:11:01.158Z,1
2023-08-07T11:12:01.175Z,1
2023-08-07T11:13:01.761Z,1
2023-08-07T11:14:02.407Z,1
2023-08-07T11:15:01.668Z,1
2023-08-07T11:16:04.277Z,1
2023-08-07T11:17:01.126Z,1
2023-08-07T11:18:00.799Z,1
2023-08-07T11:19:00.438Z,1
2023-08-07T11:20:00.079Z,1
2023-08-07T11:20:59.855Z,1
2023-08-07T11:22:02.574Z,1
2023-08-07T11:23:02.649Z,1
2023-08-07T11:24:01.410Z,1
2023-08-07T11:25:01.336Z,1
2023-08-07T11:26:00.977Z,1
2023-08-07T11:27:04.040Z,1
2023-08-07T11:28:01.176Z,1
2023-08-07T11:29:02.004Z,1
2023-08-07T11:30:01.239Z,1
2023-08-07T11:31:01.054Z,1
2023-08-07T11:32:02.491Z,1
2023-08-07T11:33:02.036Z,1
2023-08-07T11:34:01.711Z,1
2023-08-07T11:35:01.183Z,1
2023-08-07T11:36:01.104Z,1
2023-08-07T11:37:01.203Z,1
2023-08-07T11:38:01.038Z,1
2023-08-07T11:39:01.209Z,1
2023-08-07T11:40:01.215Z,1
2023-08-07T11:41:01.111Z,1
2023-08-07T11:42:01.196Z,1
2023-08-07T11:43:01.515Z,1
2023-08-07T11:44:01.124Z,1
2023-08-07T11:45:01.129Z,1
2023-08-07T11:46:01.230Z,1
2023-08-07T11:47:01.160Z,1
2023-08-07T11:48:01.191Z,1
2023-08-07T11:49:01.154Z,1
2023-08-07T11:50:01.124Z,1
2023-08-07T11:51:01.110Z,1
2023-08-07T11:52:01.273Z,1
2023-08-07T11:53:01.502Z,1
2023-08-07T11:54:01.295Z,1
2023-08-07T11:55:02.381Z,1
2023-08-07T11:56:02.082Z,1
2023-08-07T11:57:01.333Z,1
2023-08-07T11:58:01.567Z,1
2023-08-07T11:59:01.067Z,1
2023-08-07T12:00:01.216Z,1
2023-08-07T12:01:02.094Z,1
2023-08-07T12:02:01.434Z,1
2023-08-07T12:03:01.948Z,1
2023-08-07T12:04:02.494Z,1
2023-08-07T12:05:01.077Z,1
2023-08-07T12:06:00.511Z,1
2023-08-07T12:07:00.672Z,1
2023-08-07T12:08:04.933Z,1
2023-08-07T12:09:02.222Z,1
2023-08-07T12:10:02.295Z,1
2023-08-07T12:11:01.654Z,1
2023-08-07T12:12:02.291Z,1
2023-08-07T12:13:07.886Z,1
2023-08-07T12:14:01.789Z,1
2023-08-07T12:15:01.150Z,1
2023-08-07T12:16:02.452Z,1
2023-08-07T12:17:01.519Z,1
2023-08-07T12:18:10.112Z,1
2023-08-07T12:19:01.610Z,1
2023-08-07T12:20:01.264Z,1
2023-08-07T12:21:02.064Z,1
2023-08-07T12:22:02.272Z,1
2023-08-07T12:23:11.267Z,1
2023-08-07T12:24:01.281Z,1
2023-08-07T12:25:02.058Z,1
2023-08-07T12:26:02.653Z,1
2023-08-07T12:27:01.056Z,1
2023-08-07T12:28:14.163Z,1
2023-08-07T12:29:01.209Z,1
2023-08-07T12:30:00.776Z,1
2023-08-07T12:31:00.700Z,1
2023-08-07T12:32:00.587Z,1
2023-08-07T12:33:16.196Z,1
2023-08-07T12:34:35.468Z,1
2023-08-07T12:36:01.128Z,1
2023-08-07T12:37:01.178Z,1
2023-08-07T12:38:01.080Z,1
2023-08-07T12:39:00.747Z,1
2023-08-07T12:41:02.353Z,1
2023-08-07T12:43:01.666Z,1
2023-08-07T12:44:01.568Z,1
2023-08-07T12:45:01.265Z,1
2023-08-07T12:46:31.583Z,1
2023-08-07T12:47:01.256Z,1
2023-08-07T12:48:01.496Z,1
2023-08-07T12:49:02.584Z,1
2023-08-07T12:50:02.102Z,1
2023-08-07T12:51:02.816Z,1
2023-08-07T12:52:04.633Z,1
2023-08-07T12:53:01.538Z,1
2023-08-07T12:54:01.219Z,1
2023-08-07T12:55:01.127Z,1
2023-08-07T12:56:01.152Z,1
2023-08-07T12:57:00.588Z,1
2023-08-07T12:58:00.197Z,1
2023-08-07T12:58:59.908Z,1
2023-08-07T12:59:59.556Z,1
2023-08-07T13:01:01.924Z,1
2023-08-07T13:02:01.173Z,1
2023-08-07T13:03:01.217Z,1
2023-08-07T13:04:02.206Z,1
2023-08-07T13:05:02.030Z,1
2023-08-07T13:06:01.793Z,1
2023-08-07T13:07:01.702Z,1
2023-08-07T13:08:02.380Z,1
2023-08-07T13:09:01.636Z,1
2023-08-07T13:10:08.280Z,1
2023-08-07T13:11:02.084Z,1
2023-08-07T13:12:04.708Z,1
2023-08-07T13:13:01.150Z,1
2023-08-07T13:14:01.838Z,1
2023-08-07T13:15:01.931Z,1
2023-08-07T13:16:01.139Z,1
2023-08-07T13:17:01.631Z,1
2023-08-07T13:18:01.554Z,1
2023-08-07T13:19:03.044Z,1
2023-08-07T13:20:02.245Z,1
2023-08-07T13:21:01.127Z,1
2023-08-07T13:22:01.184Z,1
2023-08-07T13:23:01.135Z,1
2023-08-07T13:24:01.159Z,1
2023-08-07T13:25:01.129Z,1
2023-08-07T13:26:01.223Z,1
2023-08-07T13:27:01.557Z,1
2023-08-07T13:28:01.282Z,1
2023-08-07T13:29:01.158Z,1
2023-08-07T13:30:01.270Z,1
2023-08-07T13:31:02.654Z,1
2023-08-07T13:32:01.218Z,1
2023-08-07T13:33:00.973Z,1
2023-08-07T13:34:01.188Z,1
2023-08-07T13:35:01.436Z,1
2023-08-07T13:36:01.958Z,1
2023-08-07T13:37:01.881Z,1
2023-08-07T13:38:02.997Z,1.8
2023-08-07T13:39:02.248Z,2.8
2023-08-07T13:40:01.130Z,4
2023-08-07T13:41:01.201Z,4.6
2023-08-07T13:42:01.143Z,5.6
2023-08-07T13:43:01.091Z,6.5
2023-08-07T13:44:02.295Z,7.6